Time;durP1;ratioP1;P1;durP2;ratioP2;P2;SDS_P1;SDS_P2;PMS_P1;PMS_P2;Temp;Humidity;BMP_temperature;BMP_pressure;BME280_temperature;BME280_humidity;BME280_pressure;Samples;Min_cycle;Max_cycle;Signal;HPM_P1;HPM_P2
2023/10/31 00:01:21;;;;;;;5.43;4.93;;;12.50;70.20;;;;;;5054112;28;20423;-70
2023/10/31 00:03:47;;;;;;;5.43;4.93;;;12.50;71.60;;;;;;5053589;28;20400;-71
2023/10/31 00:06:13;;;;;;;5.30;4.90;;;12.50;73.10;;;;;;5053455;28;20385;-70
2023/10/31 00:08:38;;;;;;;7.50;5.50;;;12.40;73.70;;;;;;5053340;28;20635;-69
2023/10/31 00:11:04;;;;;;;5.93;5.33;;;12.50;73.80;;;;;;5053474;28;20385;-70
2023/10/31 00:13:30;;;;;;;6.15;5.65;;;12.40;73.70;;;;;;5053507;28;20381;-70
2023/10/31 00:15:55;;;;;;;6.80;5.10;;;12.40;74.50;;;;;;5051972;28;20382;-71
2023/10/31 00:18:21;;;;;;;6.80;5.83;;;12.50;74.20;;;;;;5053350;28;20725;-69
2023/10/31 00:20:47;;;;;;;6.60;6.00;;;12.40;74.80;;;;;;5053424;28;20435;-71
2023/10/31 00:23:13;;;;;;;5.90;5.40;;;12.40;74.80;;;;;;5053396;28;20966;-71
2023/10/31 00:25:39;;;;;;;6.30;5.60;;;12.40;74.30;;;;;;5053218;28;20382;-72
2023/10/31 00:28:04;;;;;;;5.38;4.88;;;12.40;72.70;;;;;;5053607;28;20876;-72
2023/10/31 00:30:30;;;;;;;6.97;5.65;;;12.40;72.00;;;;;;5053090;28;20396;-70
2023/10/31 00:32:55;;;;;;;5.25;4.72;;;12.40;71.40;;;;;;5053271;28;20409;-71
2023/10/31 00:35:21;;;;;;;4.30;3.90;;;12.40;68.90;;;;;;5051559;28;20389;-71
2023/10/31 00:37:46;;;;;;;4.20;3.80;;;12.30;68.80;;;;;;5052395;28;20918;-71
2023/10/31 00:40:13;;;;;;;4.07;3.60;;;12.30;69.30;;;;;;5052750;28;20413;-70
2023/10/31 00:42:40;;;;;;;6.25;4.20;;;12.20;68.80;;;;;;5052850;28;20860;-71
2023/10/31 00:45:07;;;;;;;6.80;3.90;;;12.20;66.80;;;;;;5052506;28;20408;-69
2023/10/31 00:47:32;;;;;;;7.53;4.13;;;12.20;65.50;;;;;;5050985;28;20459;-71
2023/10/31 00:49:58;;;;;;;5.80;4.13;;;12.20;65.20;;;;;;5052605;28;20860;-70
2023/10/31 00:52:24;;;;;;;8.57;5.60;;;12.20;67.00;;;;;;5052369;28;20386;-71
2023/10/31 00:54:49;;;;;;;6.20;5.60;;;12.10;68.00;;;;;;5052493;28;20390;-72
2023/10/31 00:57:15;;;;;;;7.03;5.50;;;12.10;69.10;;;;;;5052591;28;20756;-70
2023/10/31 00:59:41;;;;;;;5.97;5.30;;;12.00;70.20;;;;;;5052712;28;20417;-70
2023/10/31 01:02:06;;;;;;;7.13;5.40;;;12.10;72.00;;;;;;5052520;28;20434;-70
2023/10/31 01:04:32;;;;;;;4.07;3.67;;;12.10;71.80;;;;;;5052119;28;20818;-70
2023/10/31 01:06:57;;;;;;;5.18;4.00;;;12.20;66.80;;;;;;5052083;28;20776;-72
2023/10/31 01:09:23;;;;;;;4.50;3.30;;;12.10;66.60;;;;;;5052389;28;20421;-71
2023/10/31 01:11:49;;;;;;;4.67;3.00;;;12.10;63.50;;;;;;5052384;28;20389;-70
2023/10/31 01:14:14;;;;;;;4.00;3.10;;;12.10;64.50;;;;;;5052290;28;20756;-71
2023/10/31 01:16:40;;;;;;;2.93;2.70;;;12.10;65.30;;;;;;5050799;28;20803;-70
2023/10/31 01:19:06;;;;;;;4.75;2.70;;;12.00;66.00;;;;;;5052110;28;20473;-71
2023/10/31 01:21:31;;;;;;;4.97;3.15;;;12.10;65.80;;;;;;5051896;28;20822;-72
2023/10/31 01:23:59;;;;;;;4.03;3.00;;;12.00;64.40;;;;;;5052068;28;20428;-71
2023/10/31 01:26:24;;;;;;;4.60;2.90;;;12.00;64.40;;;;;;5050497;28;20396;-70
2023/10/31 01:28:50;;;;;;;6.63;3.50;;;11.90;66.90;;;;;;5051854;28;20415;-71
2023/10/31 01:31:15;;;;;;;4.10;2.85;;;11.90;67.00;;;;;;5051817;28;20381;-71
2023/10/31 01:33:41;;;;;;;5.07;3.00;;;11.90;68.10;;;;;;5051744;28;20434;-71
2023/10/31 01:36:07;;;;;;;6.05;3.40;;;11.90;69.40;;;;;;5051565;28;20863;-71
2023/10/31 01:38:33;;;;;;;8.43;3.47;;;11.90;70.20;;;;;;5051550;28;20404;-71
2023/10/31 01:40:58;;;;;;;5.97;3.80;;;11.80;70.60;;;;;;5051900;28;20524;-70
2023/10/31 01:43:37;;;;;;;6.63;3.70;;;11.90;69.30;;;;;;5051227;28;20416;-73
2023/10/31 01:46:03;;;;;;;6.32;3.50;;;11.90;70.90;;;;;;5051282;28;20898;-70
2023/10/31 01:48:33;;;;;;;4.57;3.30;;;11.90;70.20;;;;;;5051221;28;20907;-70
2023/10/31 01:51:00;;;;;;;10.95;4.50;;;11.90;71.20;;;;;;5051518;28;20377;-71
2023/10/31 01:53:27;;;;;;;8.73;3.90;;;11.80;72.80;;;;;;5051573;28;20392;-70
2023/10/31 01:55:55;;;;;;;8.75;4.35;;;11.80;74.00;;;;;;5051419;28;20389;-69
2023/10/31 01:58:28;;;;;;;7.28;3.88;;;11.80;72.50;;;;;;5052663;28;20400;-71
2023/10/31 02:00:55;;;;;;;6.85;4.20;;;11.80;74.80;;;;;;5053530;28;20472;-72
2023/10/31 02:03:21;;;;;;;7.68;5.00;;;11.80;74.30;;;;;;5065609;28;20395;-72
2023/10/31 02:05:47;;;;;;;8.43;4.80;;;11.80;74.60;;;;;;5055294;28;20472;-71
2023/10/31 02:08:12;;;;;;;9.50;4.47;;;11.80;75.50;;;;;;5051337;28;20455;-71
2023/10/31 02:10:38;;;;;;;7.47;5.23;;;11.90;74.30;;;;;;5051047;28;20377;-72
2023/10/31 02:13:18;;;;;;;13.17;5.77;;;11.90;75.80;;;;;;5051123;28;20385;-70
2023/10/31 02:15:44;;;;;;;10.45;6.15;;;11.90;74.60;;;;;;5050661;28;20395;-71
2023/10/31 02:18:10;;;;;;;13.77;6.40;;;12.00;75.50;;;;;;5049721;28;20439;-69
2023/10/31 02:20:36;;;;;;;12.35;6.85;;;12.00;71.90;;;;;;5051097;28;20381;-70
2023/10/31 02:23:02;;;;;;;8.98;6.50;;;12.10;69.40;;;;;;5050925;28;20860;-72
2023/10/31 02:25:28;;;;;;;9.15;6.10;;;12.10;70.60;;;;;;5050855;28;20791;-72
2023/10/31 02:27:54;;;;;;;14.48;6.65;;;12.10;70.70;;;;;;5050851;28;20386;-70
2023/10/31 02:30:19;;;;;;;9.82;6.55;;;12.00;71.80;;;;;;5050994;28;20389;-71
2023/10/31 02:32:45;;;;;;;11.40;6.40;;;12.10;71.60;;;;;;5050896;28;20465;-70
2023/10/31 02:35:11;;;;;;;13.70;6.43;;;12.00;70.80;;;;;;5050728;28;20389;-72
2023/10/31 02:37:37;;;;;;;12.30;7.50;;;12.10;70.30;;;;;;5049429;28;20767;-69
2023/10/31 02:40:03;;;;;;;11.05;6.88;;;12.00;72.40;;;;;;5050860;28;20393;-70
2023/10/31 02:42:28;;;;;;;15.52;7.10;;;12.00;73.10;;;;;;5050730;28;20891;-69
2023/10/31 02:44:54;;;;;;;13.57;7.90;;;12.10;72.90;;;;;;5050394;28;20404;-70
2023/10/31 02:47:20;;;;;;;13.63;8.10;;;12.00;72.20;;;;;;5050602;28;20948;-71
2023/10/31 02:49:45;;;;;;;13.18;8.05;;;12.00;73.40;;;;;;5052341;28;20435;-71
2023/10/31 02:52:11;;;;;;;21.87;8.87;;;12.00;73.80;;;;;;5058981;28;20795;-71
2023/10/31 02:54:37;;;;;;;14.13;8.90;;;12.00;76.10;;;;;;5068777;28;20480;-70
2023/10/31 02:57:03;;;;;;;13.40;9.07;;;12.00;76.60;;;;;;5051432;28;20965;-70
2023/10/31 02:59:28;;;;;;;15.30;9.40;;;12.00;76.50;;;;;;5050835;28;20381;-70
2023/10/31 03:01:56;;;;;;;14.53;9.63;;;11.90;76.20;;;;;;5049782;28;20818;-70
2023/10/31 03:04:22;;;;;;;15.70;9.40;;;11.90;77.10;;;;;;5050523;28;20451;-71
2023/10/31 03:06:48;;;;;;;13.50;8.73;;;11.90;76.70;;;;;;5051434;28;20393;-71
2023/10/31 03:09:13;;;;;;;20.20;10.73;;;11.90;76.20;;;;;;5050502;28;20404;-71
2023/10/31 03:11:39;;;;;;;18.17;10.33;;;11.90;76.00;;;;;;5050582;28;20436;-71
2023/10/31 03:14:04;;;;;;;14.47;9.70;;;11.90;76.70;;;;;;5050562;28;20381;-71
2023/10/31 03:16:30;;;;;;;14.93;9.40;;;11.80;78.90;;;;;;5050594;28;20392;-71
2023/10/31 03:18:56;;;;;;;16.27;9.20;;;11.90;74.80;;;;;;5050328;28;20895;-71
2023/10/31 03:21:21;;;;;;;17.13;8.98;;;11.90;75.80;;;;;;5050453;28;20385;-70
2023/10/31 03:23:48;;;;;;;14.48;8.90;;;11.90;75.70;;;;;;5050211;28;20427;-69
2023/10/31 03:26:15;;;;;;;16.58;9.23;;;12.00;75.00;;;;;;5048664;28;20394;-72
2023/10/31 03:28:40;;;;;;;19.90;9.00;;;11.90;75.90;;;;;;5050251;28;20464;-71
2023/10/31 03:31:06;;;;;;;15.30;8.87;;;12.00;74.00;;;;;;5050123;28;20984;-71
2023/10/31 03:33:32;;;;;;;14.90;8.98;;;12.00;74.30;;;;;;5050320;28;20385;-69
2023/10/31 03:35:57;;;;;;;20.35;10.40;;;11.90;76.10;;;;;;5050001;28;20400;-70
2023/10/31 03:38:23;;;;;;;14.53;9.40;;;11.90;74.60;;;;;;5085020;23;20465;-72
2023/10/31 03:40:48;;;;;;;15.50;9.70;;;12.00;74.30;;;;;;5090435;28;20457;-73
2023/10/31 03:43:14;;;;;;;15.77;9.40;;;12.00;73.30;;;;;;5090322;28;20394;-73
2023/10/31 03:45:40;;;;;;;14.30;9.00;;;12.00;72.80;;;;;;5090312;28;20391;-72
2023/10/31 03:48:06;;;;;;;15.55;9.77;;;11.90;74.00;;;;;;5090319;28;20515;-74
2023/10/31 03:50:31;;;;;;;19.23;9.70;;;11.90;74.40;;;;;;5090424;28;20455;-73
2023/10/31 03:52:57;;;;;;;14.60;9.40;;;12.00;74.60;;;;;;5090487;28;20378;-72
2023/10/31 03:55:22;;;;;;;15.60;9.00;;;12.00;75.50;;;;;;5089767;28;20855;-71
2023/10/31 03:57:48;;;;;;;16.17;8.30;;;12.00;73.00;;;;;;5089795;28;20499;-72
2023/10/31 04:00:14;;;;;;;12.00;8.13;;;12.00;73.50;;;;;;5071851;28;20401;-72
2023/10/31 04:02:41;;;;;;;14.95;8.70;;;12.10;73.00;;;;;;5090232;28;20575;-72
2023/10/31 04:05:07;;;;;;;17.30;9.27;;;12.10;73.80;;;;;;5089757;28;20752;-72
2023/10/31 04:07:32;;;;;;;13.20;7.80;;;12.10;72.80;;;;;;5089791;28;20378;-74
2023/10/31 04:09:58;;;;;;;14.53;8.60;;;12.10;71.50;;;;;;5089872;28;20386;-72
2023/10/31 04:12:23;;;;;;;13.20;7.72;;;12.00;73.40;;;;;;5091588;28;20385;-73
2023/10/31 04:14:49;;;;;;;13.32;8.40;;;12.00;71.60;;;;;;5093565;28;20386;-73
2023/10/31 04:17:14;;;;;;;14.15;8.48;;;12.10;72.50;;;;;;5093368;28;20382;-73
2023/10/31 04:19:40;;;;;;;17.23;10.00;;;12.10;72.00;;;;;;5093262;28;20390;-72
2023/10/31 04:22:05;;;;;;;15.23;9.30;;;12.00;73.10;;;;;;5093274;28;20872;-72
2023/10/31 04:24:31;;;;;;;9.53;7.00;;;12.00;72.50;;;;;;5093194;28;20833;-73
2023/10/31 04:26:57;;;;;;;12.10;7.53;;;12.10;73.40;;;;;;5093416;28;20907;-73
2023/10/31 04:29:23;;;;;;;10.60;7.07;;;12.00;74.00;;;;;;5093457;28;20378;-72
2023/10/31 04:31:48;;;;;;;10.43;6.40;;;12.10;74.00;;;;;;5093432;28;20385;-73
2023/10/31 04:34:14;;;;;;;9.00;7.00;;;12.00;75.60;;;;;;5093275;28;20407;-72
2023/10/31 04:36:39;;;;;;;12.57;7.10;;;11.90;76.40;;;;;;5093472;28;20378;-70
2023/10/31 04:39:05;;;;;;;8.60;6.07;;;11.90;75.50;;;;;;5095035;28;20382;-72
2023/10/31 04:41:31;;;;;;;8.27;6.05;;;12.00;75.00;;;;;;5092988;28;20412;-73
2023/10/31 04:43:57;;;;;;;11.80;6.50;;;11.90;76.30;;;;;;5092821;28;20416;-71
2023/10/31 04:46:22;;;;;;;9.25;6.63;;;12.00;74.80;;;;;;5092695;28;20439;-72
2023/10/31 04:48:48;;;;;;;7.75;6.03;;;12.00;72.80;;;;;;5092927;28;20374;-71
2023/10/31 04:51:14;;;;;;;10.95;6.70;;;12.10;72.00;;;;;;5092945;28;20435;-72
2023/10/31 04:53:39;;;;;;;8.48;5.68;;;12.00;73.40;;;;;;5092804;28;20439;-73
2023/10/31 04:56:11;;;;;;;8.40;6.20;;;12.00;74.70;;;;;;5074492;28;20389;-72
2023/10/31 04:58:37;;;;;;;9.50;6.22;;;11.90;77.30;;;;;;5092721;28;20417;-72
2023/10/31 05:01:03;;;;;;;8.60;6.70;;;11.80;77.50;;;;;;5092592;28;20469;-72
2023/10/31 05:03:28;;;;;;;10.30;6.80;;;11.90;77.80;;;;;;5092517;28;20436;-72
2023/10/31 05:05:54;;;;;;;10.07;6.82;;;11.80;77.70;;;;;;5092810;28;20385;-73
2023/10/31 05:08:19;;;;;;;8.80;6.72;;;11.90;78.20;;;;;;5074714;28;20386;-73
2023/10/31 05:10:47;;;;;;;9.30;6.50;;;11.80;80.00;;;;;;5092477;28;20386;-71
2023/10/31 05:13:12;;;;;;;8.97;7.00;;;11.80;80.20;;;;;;5092490;28;20390;-73
2023/10/31 05:15:38;;;;;;;8.93;7.10;;;11.90;78.20;;;;;;5092161;28;20386;-73
2023/10/31 05:18:04;;;;;;;8.90;6.70;;;11.90;77.20;;;;;;5092198;28;20386;-72
2023/10/31 05:20:29;;;;;;;8.37;6.80;;;11.90;77.30;;;;;;5092280;28;20374;-73
2023/10/31 05:22:55;;;;;;;9.27;7.40;;;11.90;78.50;;;;;;5092344;28;20382;-72
2023/10/31 05:25:20;;;;;;;10.15;6.85;;;11.90;80.50;;;;;;5093197;28;20598;-72
2023/10/31 05:27:46;;;;;;;10.83;7.60;;;11.80;82.20;;;;;;5092644;28;20381;-73
2023/10/31 05:30:14;;;;;;;10.67;7.30;;;11.80;81.70;;;;;;5092403;28;20378;-73
2023/10/31 05:32:39;;;;;;;10.60;7.93;;;11.70;83.90;;;;;;5092294;28;20390;-72
2023/10/31 05:35:05;;;;;;;12.00;7.53;;;11.70;87.00;;;;;;5092238;28;20374;-73
2023/10/31 05:37:31;;;;;;;11.30;7.63;;;11.60;89.30;;;;;;5091776;28;20386;-72
2023/10/31 05:39:56;;;;;;;13.10;8.50;;;11.60;88.50;;;;;;5092072;28;20443;-74
2023/10/31 05:42:23;;;;;;;12.83;8.27;;;11.50;90.50;;;;;;5092081;28;20404;-72
2023/10/31 05:44:48;;;;;;;13.48;7.70;;;11.50;92.40;;;;;;5092149;28;20433;-72
2023/10/31 05:47:14;;;;;;;12.00;8.27;;;11.50;90.00;;;;;;5091475;28;20880;-74
2023/10/31 05:49:43;;;;;;;11.50;8.50;;;11.40;91.30;;;;;;5092069;28;20518;-72
2023/10/31 05:52:08;;;;;;;10.93;8.45;;;11.40;92.30;;;;;;5091936;28;20393;-73
2023/10/31 05:54:34;;;;;;;13.20;8.50;;;11.50;93.30;;;;;;5092103;28;20390;-73
2023/10/31 05:56:59;;;;;;;13.68;8.63;;;11.40;94.20;;;;;;5091665;28;20382;-72
2023/10/31 05:59:25;;;;;;;16.10;8.20;;;11.30;94.40;;;;;;5091688;28;20389;-73
2023/10/31 06:01:51;;;;;;;10.18;7.93;;;11.40;93.30;;;;;;5091842;28;20420;-71
2023/10/31 06:04:16;;;;;;;10.63;7.22;;;11.40;93.70;;;;;;5092147;28;20410;-74
2023/10/31 06:06:42;;;;;;;12.33;7.10;;;11.30;92.90;;;;;;5091623;28;20393;-72
2023/10/31 06:09:10;;;;;;;10.83;7.67;;;11.20;93.60;;;;;;5091680;28;20845;-72
2023/10/31 06:11:35;;;;;;;10.07;6.88;;;11.20;95.10;;;;;;5073900;28;20396;-72
2023/10/31 06:14:01;;;;;;;10.48;7.13;;;11.20;95.00;;;;;;5091172;28;20382;-72
2023/10/31 06:16:27;;;;;;;8.85;7.25;;;11.10;97.20;;;;;;5090795;28;20382;-73
2023/10/31 06:18:52;;;;;;;10.25;6.93;;;11.10;97.10;;;;;;5090996;28;20388;-71
2023/10/31 06:21:18;;;;;;;10.57;6.55;;;11.20;96.30;;;;;;5091143;28;20411;-73
2023/10/31 06:23:46;;;;;;;9.93;6.90;;;11.20;94.70;;;;;;5090482;28;20394;-72
2023/10/31 06:26:11;;;;;;;11.90;6.80;;;11.20;95.20;;;;;;5090728;28;20481;-73
2023/10/31 06:28:37;;;;;;;7.97;6.80;;;11.30;91.80;;;;;;5090682;28;20797;-73
2023/10/31 06:31:03;;;;;;;7.80;6.30;;;11.30;91.80;;;;;;5090830;28;20439;-73
2023/10/31 06:33:30;;;;;;;10.00;6.25;;;11.40;91.80;;;;;;5090930;28;20386;-72
2023/10/31 06:35:55;;;;;;;14.07;6.90;;;11.40;89.90;;;;;;5091123;28;20917;-74
2023/10/31 06:38:21;;;;;;;10.03;7.40;;;11.40;91.40;;;;;;5073296;28;20558;-74
2023/10/31 06:40:46;;;;;;;8.93;7.27;;;11.50;89.00;;;;;;5091839;28;20868;-72
2023/10/31 06:43:12;;;;;;;14.18;9.10;;;11.40;90.40;;;;;;5092345;28;20394;-73
2023/10/31 06:45:38;;;;;;;12.25;9.07;;;11.50;88.70;;;;;;5090012;28;20447;-71
2023/10/31 06:48:04;;;;;;;11.85;9.35;;;11.50;89.90;;;;;;5086565;28;20450;-75
2023/10/31 06:50:29;;;;;;;16.33;10.70;;;11.40;90.40;;;;;;5090317;28;20397;-71
2023/10/31 06:52:55;;;;;;;15.00;11.13;;;11.40;91.60;;;;;;5081299;28;20372;-70
2023/10/31 06:55:20;;;;;;;16.88;11.57;;;11.40;92.90;;;;;;5055767;28;20518;-71
2023/10/31 06:57:46;;;;;;;17.80;12.40;;;11.40;92.40;;;;;;5070621;28;20395;-72
2023/10/31 07:00:12;;;;;;;17.00;12.07;;;11.40;93.50;;;;;;5077182;28;20398;-73
2023/10/31 07:02:38;;;;;;;20.60;12.57;;;11.40;94.60;;;;;;5068335;28;20445;-71
2023/10/31 07:05:03;;;;;;;18.55;12.15;;;11.50;93.90;;;;;;5050703;28;20408;-72
2023/10/31 07:07:29;;;;;;;17.35;11.60;;;11.50;91.70;;;;;;5069872;28;20470;-72
2023/10/31 07:09:55;;;;;;;17.63;12.13;;;11.50;92.20;;;;;;5088465;28;20385;-71
2023/10/31 07:12:21;;;;;;;16.27;11.57;;;11.50;91.30;;;;;;5088337;28;20896;-75
2023/10/31 07:14:47;;;;;;;13.25;10.65;;;11.50;88.70;;;;;;5085982;28;20421;-72
2023/10/31 07:17:13;;;;;;;16.55;11.77;;;11.60;91.20;;;;;;5088601;28;20414;-71
2023/10/31 07:19:38;;;;;;;13.73;10.43;;;11.60;89.30;;;;;;5070763;28;20440;-72
2023/10/31 07:22:04;;;;;;;12.77;9.35;;;11.70;86.00;;;;;;5087912;28;20840;-72
2023/10/31 07:24:29;;;;;;;12.80;9.63;;;11.80;82.90;;;;;;5088483;28;20922;-72
2023/10/31 07:26:55;;;;;;;14.20;8.83;;;11.80;81.70;;;;;;5088514;28;20370;-73
2023/10/31 07:29:20;;;;;;;18.50;9.80;;;11.80;79.00;;;;;;5088338;28;20775;-72
2023/10/31 07:31:46;;;;;;;14.00;9.30;;;11.80;79.30;;;;;;5088480;28;20401;-74
2023/10/31 07:34:12;;;;;;;14.27;9.90;;;11.80;78.00;;;;;;5089037;28;20497;-73
2023/10/31 07:36:39;;;;;;;16.13;10.20;;;11.80;79.30;;;;;;5087815;28;20409;-71
2023/10/31 07:39:04;;;;;;;14.98;9.75;;;11.80;78.00;;;;;;5087520;28;20406;-71
2023/10/31 07:41:30;;;;;;;14.67;10.50;;;11.90;77.50;;;;;;5088571;28;20386;-72
2023/10/31 07:43:56;;;;;;;13.47;10.63;;;11.90;78.90;;;;;;5088095;28;20429;-72
2023/10/31 07:46:23;;;;;;;21.73;10.47;;;12.00;77.70;;;;;;5088175;28;20672;-73
2023/10/31 07:48:48;;;;;;;16.48;11.70;;;11.90;77.00;;;;;;5092367;28;20385;-73
2023/10/31 07:51:14;;;;;;;13.93;10.27;;;11.90;78.20;;;;;;5092426;28;20389;-73
2023/10/31 07:53:41;;;;;;;18.53;11.17;;;11.90;76.60;;;;;;5091875;28;20503;-73
2023/10/31 07:56:15;;;;;;;13.35;10.18;;;11.90;76.20;;;;;;5092067;28;20895;-72
2023/10/31 07:58:41;;;;;;;13.45;10.57;;;11.90;77.40;;;;;;5091259;28;20393;-73
2023/10/31 08:01:10;;;;;;;12.87;10.27;;;11.90;74.90;;;;;;5074209;28;20958;-74
2023/10/31 08:03:36;;;;;;;14.20;9.90;;;12.00;73.50;;;;;;5092060;28;20401;-71
2023/10/31 08:06:02;;;;;;;17.80;10.35;;;11.90;73.40;;;;;;5091331;28;20756;-70
2023/10/31 08:08:27;;;;;;;14.50;9.50;;;12.00;73.10;;;;;;5091810;28;20390;-71
2023/10/31 08:10:53;;;;;;;14.25;9.57;;;12.00;71.30;;;;;;5091816;28;20386;-72
2023/10/31 08:13:18;;;;;;;12.88;8.90;;;12.00;72.60;;;;;;5090641;28;20382;-73
2023/10/31 08:15:44;;;;;;;11.02;8.10;;;12.00;69.10;;;;;;5091630;28;20407;-72
2023/10/31 08:18:09;;;;;;;12.80;9.33;;;12.10;68.10;;;;;;5091063;28;20394;-72
2023/10/31 08:20:35;;;;;;;13.20;9.10;;;12.20;69.50;;;;;;5091509;28;20833;-73
2023/10/31 08:23:01;;;;;;;15.20;9.33;;;12.20;67.50;;;;;;5091129;28;20401;-74
2023/10/31 08:25:27;;;;;;;13.40;8.60;;;12.20;67.90;;;;;;5091056;28;20823;-71
2023/10/31 08:27:53;;;;;;;10.60;8.10;;;12.30;67.10;;;;;;5091300;28;20400;-70
2023/10/31 08:30:20;;;;;;;9.43;7.30;;;12.40;65.70;;;;;;5091562;28;20374;-72
2023/10/31 08:32:45;;;;;;;12.20;8.30;;;12.40;62.90;;;;;;5073514;28;20744;-72
2023/10/31 08:35:11;;;;;;;12.02;7.97;;;12.40;63.50;;;;;;5091002;28;20390;-73
2023/10/31 08:37:36;;;;;;;9.77;7.90;;;12.40;61.30;;;;;;5092862;28;20458;-73
2023/10/31 08:40:04;;;;;;;13.63;7.93;;;12.40;63.10;;;;;;5093666;28;20455;-72
2023/10/31 08:42:30;;;;;;;11.20;8.20;;;12.30;62.10;;;;;;5091556;28;20409;-72
2023/10/31 08:44:55;;;;;;;12.15;8.20;;;12.40;62.30;;;;;;5090780;28;20393;-73
2023/10/31 08:47:21;;;;;;;11.20;7.70;;;12.50;63.70;;;;;;5090739;28;20401;-73
2023/10/31 08:49:46;;;;;;;10.97;7.53;;;12.60;62.20;;;;;;5090616;28;20477;-72
2023/10/31 08:52:12;;;;;;;10.67;7.90;;;12.70;60.90;;;;;;5091018;28;20393;-71
2023/10/31 08:54:38;;;;;;;9.45;7.50;;;12.80;60.50;;;;;;5090833;28;20386;-72
2023/10/31 08:57:03;;;;;;;10.02;7.47;;;12.90;57.80;;;;;;5090419;28;20387;-75
2023/10/31 08:59:29;;;;;;;11.80;7.80;;;12.90;58.80;;;;;;5090689;28;20761;-72
2023/10/31 09:01:54;;;;;;;8.85;7.45;;;12.90;59.90;;;;;;5091005;28;20433;-73
2023/10/31 09:04:20;;;;;;;12.80;7.83;;;12.90;58.30;;;;;;5092161;28;20409;-71
2023/10/31 09:06:46;;;;;;;16.23;8.13;;;12.90;58.10;;;;;;5090350;28;20392;-71
2023/10/31 09:09:12;;;;;;;9.23;8.07;;;13.00;57.50;;;;;;5089147;28;20478;-72
2023/10/31 09:11:38;;;;;;;9.98;7.63;;;13.00;56.50;;;;;;5090808;28;20402;-73
2023/10/31 09:14:03;;;;;;;12.07;8.13;;;13.10;55.30;;;;;;5088877;28;20484;-70
2023/10/31 09:16:29;;;;;;;11.27;7.63;;;13.20;54.20;;;;;;5091004;28;20449;-72
2023/10/31 09:18:55;;;;;;;15.53;8.00;;;13.20;54.20;;;;;;5090036;28;20420;-71
2023/10/31 09:21:20;;;;;;;14.63;8.73;;;13.10;56.00;;;;;;5084008;28;20883;-69
2023/10/31 09:23:46;;;;;;;14.57;8.40;;;13.00;57.00;;;;;;5083645;28;20439;-72
2023/10/31 09:26:11;;;;;;;17.60;9.68;;;13.10;56.00;;;;;;5075920;28;20429;-70
2023/10/31 09:28:39;;;;;;;15.00;9.50;;;13.20;54.60;;;;;;5090764;28;20394;-70
2023/10/31 09:31:04;;;;;;;16.77;10.30;;;13.40;55.00;;;;;;5092439;28;20459;-70
2023/10/31 09:33:30;;;;;;;13.57;9.67;;;13.50;54.50;;;;;;5092295;28;20447;-69
2023/10/31 09:35:56;;;;;;;14.30;9.60;;;13.80;52.20;;;;;;5092139;28;20378;-67
2023/10/31 09:38:21;;;;;;;17.73;10.45;;;13.80;52.20;;;;;;5104682;22;20444;-73
2023/10/31 09:40:47;;;;;;;12.95;9.90;;;13.70;52.40;;;;;;5092143;28;20378;-71
2023/10/31 09:43:12;;;;;;;12.87;9.83;;;13.70;53.10;;;;;;5091925;28;20386;-73
2023/10/31 09:45:38;;;;;;;16.33;8.80;;;13.70;52.10;;;;;;5074127;28;20393;-71
2023/10/31 09:48:03;;;;;;;13.83;9.00;;;13.80;51.20;;;;;;5091752;28;20474;-72
2023/10/31 09:50:30;;;;;;;11.50;7.60;;;13.70;51.40;;;;;;5083520;28;20459;-73
2023/10/31 09:52:56;;;;;;;9.90;6.97;;;13.70;49.70;;;;;;5089671;28;20387;-73
2023/10/31 09:55:22;;;;;;;10.60;7.05;;;13.60;51.20;;;;;;5057053;28;20394;-72
2023/10/31 09:57:48;;;;;;;12.77;6.50;;;13.60;51.20;;;;;;5099009;28;20476;-72
2023/10/31 10:00:13;;;;;;;9.53;6.60;;;13.70;52.30;;;;;;5086616;28;20415;-73
2023/10/31 10:02:40;;;;;;;14.27;6.20;;;13.70;51.10;;;;;;5079937;28;21027;-72
2023/10/31 10:05:06;;;;;;;11.85;6.97;;;13.90;50.90;;;;;;5074027;28;20457;-72
2023/10/31 10:07:35;;;;;;;7.50;5.68;;;14.10;50.70;;;;;;5075517;28;20390;-72
2023/10/31 10:10:01;;;;;;;8.60;5.60;;;14.10;47.90;;;;;;5070790;28;20396;-71
2023/10/31 10:12:26;;;;;;;11.73;5.10;;;14.10;47.60;;;;;;5059609;28;20390;-72
2023/10/31 10:14:52;;;;;;;9.90;4.90;;;13.90;48.70;;;;;;5054855;28;20388;-73
2023/10/31 10:17:21;;;;;;;10.30;5.20;;;13.80;47.70;;;;;;5072177;28;20410;-72
2023/10/31 10:19:47;;;;;;;7.78;5.13;;;13.80;48.40;;;;;;5073158;28;20399;-73
2023/10/31 10:22:14;;;;;;;8.27;4.85;;;13.70;48.10;;;;;;5071350;28;20865;-72
2023/10/31 10:24:41;;;;;;;11.80;5.10;;;13.70;49.30;;;;;;5071034;28;20494;-72
2023/10/31 10:27:09;;;;;;;7.57;4.60;;;13.90;49.20;;;;;;5071139;28;20436;-72
2023/10/31 10:29:36;;;;;;;9.15;4.60;;;14.00;48.00;;;;;;5071447;28;20392;-73
2023/10/31 10:32:06;;;;;;;10.50;4.50;;;14.00;46.30;;;;;;5070897;28;20384;-71
2023/10/31 10:34:31;;;;;;;7.43;4.27;;;14.10;45.30;;;;;;5070801;28;20391;-71
2023/10/31 10:36:58;;;;;;;9.27;4.47;;;14.40;45.80;;;;;;5052250;28;20784;-72
2023/10/31 10:39:23;;;;;;;5.13;4.00;;;14.60;44.40;;;;;;5070715;28;20528;-73
2023/10/31 10:41:58;;;;;;;8.68;4.07;;;14.80;42.90;;;;;;5071464;28;20823;-73
2023/10/31 10:44:35;;;;;;;8.07;3.50;;;15.00;41.30;;;;;;5085663;28;20409;-71
2023/10/31 10:47:06;;;;;;;8.43;3.33;;;15.00;41.80;;;;;;5062793;28;20773;-72
2023/10/31 10:49:36;;;;;;;6.72;2.92;;;15.00;40.30;;;;;;5070371;28;20384;-71
2023/10/31 10:52:07;;;;;;;7.72;3.00;;;15.00;39.70;;;;;;5073307;28;20493;-72
2023/10/31 10:54:42;;;;;;;4.80;2.78;;;14.90;40.10;;;;;;5089865;28;20389;-72
2023/10/31 10:57:36;;;;;;;8.45;3.38;;;14.90;41.30;;;;;;5091054;28;20754;-72
2023/10/31 11:00:12;;;;;;;6.38;2.90;;;14.90;40.70;;;;;;5091205;28;20872;-72
2023/10/31 11:02:41;;;;;;;6.03;2.67;;;14.70;39.80;;;;;;5073232;28;20837;-72
2023/10/31 11:05:07;;;;;;;8.13;2.63;;;14.60;42.10;;;;;;5090496;28;20409;-72
2023/10/31 11:07:34;;;;;;;7.50;3.30;;;14.50;42.90;;;;;;5072453;28;20726;-72
2023/10/31 11:10:02;;;;;;;4.53;2.97;;;14.50;40.60;;;;;;5090721;28;20382;-71
2023/10/31 11:12:30;;;;;;;5.78;2.65;;;14.60;42.20;;;;;;5090623;28;20385;-71
2023/10/31 11:14:58;;;;;;;5.05;2.50;;;14.60;39.70;;;;;;5090357;28;20416;-72
2023/10/31 11:17:34;;;;;;;7.07;2.80;;;14.60;39.60;;;;;;5072626;28;20382;-72
2023/10/31 11:20:00;;;;;;;5.60;3.00;;;14.50;40.20;;;;;;5090433;28;20374;-72
2023/10/31 11:22:36;;;;;;;5.45;3.10;;;14.70;40.60;;;;;;5087689;28;20391;-72
2023/10/31 11:25:02;;;;;;;6.20;2.90;;;14.80;40.00;;;;;;5074560;28;20494;-71
2023/10/31 11:27:27;;;;;;;3.08;2.30;;;15.00;39.50;;;;;;5074979;28;20407;-72
2023/10/31 11:29:55;;;;;;;6.00;3.00;;;15.20;37.50;;;;;;5090766;28;20382;-72
2023/10/31 11:32:22;;;;;;;3.67;2.30;;;15.40;37.60;;;;;;5073510;28;20901;-71
2023/10/31 11:34:47;;;;;;;7.75;2.60;;;15.40;36.00;;;;;;5072355;28;20384;-72
2023/10/31 11:37:19;;;;;;;5.03;2.40;;;15.10;36.30;;;;;;5072030;28;20471;-73
2023/10/31 11:40:22;;;;;;;5.60;2.30;;;14.90;36.60;;;;;;5071552;28;20427;-73
2023/10/31 11:42:54;;;;;;;6.70;2.35;;;14.90;37.00;;;;;;5061713;28;20427;-72
2023/10/31 11:45:35;;;;;;;4.00;2.58;;;14.80;37.60;;;;;;5072285;28;20407;-72
2023/10/31 11:48:01;;;;;;;8.18;2.53;;;14.70;38.70;;;;;;5072241;28;20490;-72
2023/10/31 11:50:27;;;;;;;6.65;2.80;;;14.60;38.90;;;;;;5069189;28;20454;-71
2023/10/31 11:53:20;;;;;;;9.15;2.75;;;14.50;39.30;;;;;;5071203;28;20756;-71
2023/10/31 11:55:47;;;;;;;5.10;2.40;;;14.50;40.10;;;;;;5069538;28;20399;-72
2023/10/31 11:58:23;;;;;;;5.18;2.63;;;14.50;39.40;;;;;;5071291;28;20886;-70
2023/10/31 12:00:51;;;;;;;7.65;2.70;;;14.40;40.40;;;;;;5076597;28;20513;-72
2023/10/31 12:03:18;;;;;;;5.68;2.30;;;14.40;40.80;;;;;;5071196;28;20805;-73
2023/10/31 12:05:54;;;;;;;4.03;2.42;;;14.60;38.90;;;;;;5070968;28;20413;-72
2023/10/31 12:08:26;;;;;;;5.80;2.40;;;14.70;39.70;;;;;;5055922;28;20411;-72
2023/10/31 12:10:52;;;;;;;5.38;2.50;;;14.70;39.00;;;;;;5071280;28;20426;-71
2023/10/31 12:13:17;;;;;;;4.65;2.10;;;14.60;39.40;;;;;;5070867;28;20945;-71
2023/10/31 12:15:53;;;;;;;5.53;2.20;;;14.70;39.10;;;;;;5070275;28;20399;-73
2023/10/31 12:18:18;;;;;;;4.93;2.80;;;14.60;39.10;;;;;;5071187;28;20817;-73
2023/10/31 12:20:51;;;;;;;4.40;2.30;;;14.60;39.50;;;;;;5053596;28;20383;-72
2023/10/31 12:23:17;;;;;;;4.70;2.28;;;14.50;38.40;;;;;;5070752;28;20460;-71
2023/10/31 12:25:50;;;;;;;7.32;2.40;;;14.40;38.30;;;;;;5071709;28;20900;-71
2023/10/31 12:28:17;;;;;;;5.53;2.60;;;14.50;38.90;;;;;;5070614;28;20387;-72
2023/10/31 12:30:47;;;;;;;5.93;2.25;;;14.50;38.90;;;;;;5070927;28;20438;-70
2023/10/31 12:33:13;;;;;;;3.88;2.40;;;14.50;39.10;;;;;;5070198;28;20376;-72
2023/10/31 12:35:39;;;;;;;7.10;2.90;;;14.50;40.70;;;;;;5071695;28;20394;-72
2023/10/31 12:38:06;;;;;;;4.82;2.42;;;14.60;39.10;;;;;;5077268;28;20395;-72